createdAt,value
2024-04-16T16:56:33.370Z,1.90
2024-04-16T17:01:37.458Z,2.30
2024-04-16T17:06:42.462Z,2.30
2024-04-16T17:11:48.841Z,2.13
2024-04-16T17:16:53.721Z,1.87
2024-04-16T17:21:57.856Z,2.07
2024-04-16T17:27:03.928Z,1.60
2024-04-16T17:32:08.989Z,1.50
2024-04-16T17:37:14.117Z,1.20
2024-04-16T17:42:20.196Z,1.53
2024-04-16T17:47:24.494Z,1.27
2024-04-16T17:52:28.915Z,1.47
2024-04-16T17:57:34.975Z,1.57
2024-04-16T18:02:38.977Z,1.83
2024-04-16T18:07:43.629Z,1.43
2024-04-16T18:12:50.155Z,1.57
2024-04-16T18:17:54.559Z,1.37
2024-04-16T18:22:58.819Z,1.50
2024-04-16T18:28:04.900Z,1.60
2024-04-16T18:33:09.379Z,1.50
2024-04-16T18:38:17.733Z,1.60
2024-04-16T18:43:24.352Z,1.67
2024-04-16T18:48:28.705Z,1.60
2024-04-16T18:53:33.115Z,2.20
2024-04-16T18:58:39.171Z,2.00
2024-04-16T19:03:43.506Z,1.63
2024-04-16T19:08:47.818Z,1.43
2024-04-16T19:13:55.374Z,1.93
2024-04-16T19:18:59.991Z,1.80
2024-04-16T19:24:04.358Z,1.50
2024-04-16T19:29:10.800Z,1.90
2024-04-16T19:34:15.266Z,1.50
2024-04-16T19:39:22.680Z,1.80
2024-04-16T19:44:29.890Z,1.90
2024-04-16T19:49:34.396Z,2.00
2024-04-16T19:54:38.341Z,2.43
2024-04-16T19:59:45.637Z,3.10
2024-04-16T20:04:49.912Z,3.00
2024-04-16T20:09:55.885Z,3.30
2024-04-16T20:15:02.337Z,3.43
2024-04-16T20:20:07.507Z,3.40
2024-04-16T20:25:17.115Z,3.63
2024-04-16T20:30:24.543Z,3.53
2024-04-16T20:35:29.366Z,4.00
2024-04-16T20:40:33.728Z,4.23
2024-04-16T20:45:42.752Z,4.83
2024-04-16T20:50:55.310Z,4.30
2024-04-16T20:56:03.575Z,4.17
2024-04-16T21:01:11.223Z,4.10
2024-04-16T21:06:15.478Z,3.90
2024-04-16T21:11:19.673Z,3.90
2024-04-16T21:16:25.894Z,3.93
2024-04-16T21:21:30.058Z,3.70
2024-04-16T21:26:34.198Z,4.13
2024-04-16T21:31:43.578Z,4.23
2024-04-16T21:36:48.417Z,4.67
2024-04-16T21:41:52.506Z,3.83
